Weather at Beersheba (Teyman) Airport

Public forecast

Using degrees Celsius for public forecast. Weather courtesy of forecast.io.

Closest aviation weather report (METAR) to Beersheba (Teyman) Airport

Closest report is Ben Gurion International Airport, 44.3 nm (82.0 km) N.

2024/05/20 02:50 (retrieved 27 minutes ago)

LLBG 200250Z VRB02KT CAVOK 21/11 Q1009 NOSIG

Closest aviation forecast (TAF) to Beersheba (Teyman) Airport

Forecast is more than 12 hours old.

Closest forecast is Beirut Rafic Hariri International Airport, 157.0 nm (290.7 km) NNE.

2024/05/19 12:01 (retrieved 15 hours ago)

TAF OLBA 191000Z 1912/2018 28010KT 8000 NSC BECMG 1918/1921 14005KT BECMG 2009/2012 23010KT